CheckWX is a tool to help pilots better visualize weather data.  It is not intended as a substitute for an official pre-flight weather briefing.

13:25:12 UTC

SLCB TAF
Jorge Wilsterman International Airport
Cochabamba, Bolivia
TAF SLCB 161050Z 1612/1712 00000KT 9999 FEW033 SCT070 TX23/1619Z TN09/1711Z BECMG 1616/1618 34012KT FEW033 FEW036CB SCT070 TEMPO 1619/ 1621 06015KT BECMG 1702/1704 00000KT FEW030 BKN070

Jun-16@
12:00 UTC

Jun-16 @ 12:00 UTC

Jun-16@
16:00 UTC

Jun-16 @ 16:00 UTC

TAF SLCB 161050Z 1612/1712 00000KT 9999 FEW033 SCT070 TX23/1619Z TN09/1711Z
Cloud Levels
  • Few at 3,300' AGL
  • Scattered at 7,000' AGL

Jun-16@
16:00 UTC

Jun-16 @ 16:00 UTC

Jun-17@
02:00 UTC

Jun-17 @ 02:00 UTC

BECMG 1616/1618 34012KT FEW033 FEW036CB SCT070

Becoming

Becoming Conditions expected by Sun, Jun 16, 2019 @ 18:00 UTC

Wind
  • 340° at 12 KTS
Cloud Levels
  • Few at 3,300' AGL
  • Few at 3,600' AGL
  • Scattered at 7,000' AGL

Jun-17@
02:00 UTC

Jun-17 @ 02:00 UTC

Jun-17@
12:00 UTC

Jun-17 @ 12:00 UTC

BECMG 1702/1704 00000KT FEW030 BKN070

Becoming

Becoming Conditions expected by Mon, Jun 17, 2019 @ 04:00 UTC

Cloud Levels
  • Few at 3,000' AGL
  • Broken at 7,000' AGL